CYYZ/YYZ METAR and TAF weather

Enter ICAO airport designator
Station Type Date Time Source
CYYZ METAR 2019/05/19 06:00 UTC NOAA

CYYZ 190600Z 09008KT 15SM BKN100 11/M00 A2987 RMK AC5 SLP119


Station Type Date Time Source
CYYZ Decoded METAR 2019/05/19 06:00 UTC NOAA

Toronto Pearson Int'L. Ont., Canada (CYYZ) 43-40N 079-38W 173M
May 19, 2019 - 02:00 AM EDT / 2019.05.19 0600 UTC
Wind: from the E (090 degrees) at 9 MPH (8 KT):0
Visibility: 15 mile(s):0
Sky conditions: mostly cloudy
Temperature: 51 F (11 C)
Dew Point: 32 F (0 C)
Relative Humidity: 46%
Pressure (altimeter): 29.87 in. Hg (1011 hPa)
ob: CYYZ 190600Z 09008KT 15SM BKN100 11/M00 A2987 RMK AC5 SLP119
cycle: 6

Station Type Date Time Source
CYYZ TAF 2019/05/19 06:45 UTC NOAA

TAF CYYZ 190541Z 1906/2012 08008KT P6SM FEW040 SCT080
BECMG 1907/1909 VRB03KT
FM191300 15008KT P6SM SCT060
FM191500 16012KT P6SM SCT060
TEMPO 1915/1918 P6SM -SHRA VCTS BKN060CB
FM192200 18012KT P6SM BKN060 PROB30 1922/2004 VRB20G30KT 11/2SM +TSRA BR BKN020 OVC050CB
FM200400 22015G25KT P6SM -SHRA BKN040
FM200900 25012KT P6SM FEW015 SCT060
FM201100 25015G25KT P6SM BKN015
RMK NXT FCST BY 190900Z

Example: see airport list